sensor_id;sensor_type;location;lat;lon;timestamp;P1;durP1;ratioP1;P2;durP2;ratioP2
19151;SDS011;9708;53.114;9.388;2023-08-12T00:00:42;3.92;;;2.90;;
19151;SDS011;9708;53.114;9.388;2023-08-12T00:03:09;3.13;;;2.80;;
19151;SDS011;9708;53.114;9.388;2023-08-12T00:05:36;2.90;;;2.70;;
19151;SDS011;9708;53.114;9.388;2023-08-12T00:08:05;2.97;;;2.67;;
19151;SDS011;9708;53.114;9.388;2023-08-12T00:10:32;4.43;;;2.70;;
19151;SDS011;9708;53.114;9.388;2023-08-12T00:12:58;4.85;;;3.42;;
19151;SDS011;9708;53.114;9.388;2023-08-12T00:15:27;4.10;;;2.90;;
19151;SDS011;9708;53.114;9.388;2023-08-12T00:17:53;3.50;;;2.97;;
19151;SDS011;9708;53.114;9.388;2023-08-12T00:20:20;5.03;;;2.85;;
19151;SDS011;9708;53.114;9.388;2023-08-12T00:22:47;3.13;;;2.83;;
19151;SDS011;9708;53.114;9.388;2023-08-12T00:25:14;3.72;;;2.78;;
19151;SDS011;9708;53.114;9.388;2023-08-12T00:27:41;3.50;;;2.55;;
19151;SDS011;9708;53.114;9.388;2023-08-12T00:30:08;4.60;;;2.70;;
19151;SDS011;9708;53.114;9.388;2023-08-12T00:32:36;3.85;;;2.88;;
19151;SDS011;9708;53.114;9.388;2023-08-12T00:35:03;5.53;;;2.58;;
19151;SDS011;9708;53.114;9.388;2023-08-12T00:37:31;4.70;;;3.08;;
19151;SDS011;9708;53.114;9.388;2023-08-12T00:39:58;5.75;;;3.20;;
19151;SDS011;9708;53.114;9.388;2023-08-12T00:42:25;3.13;;;2.80;;
19151;SDS011;9708;53.114;9.388;2023-08-12T00:44:51;6.68;;;3.13;;
19151;SDS011;9708;53.114;9.388;2023-08-12T00:47:18;3.28;;;2.90;;
19151;SDS011;9708;53.114;9.388;2023-08-12T00:49:47;5.20;;;3.58;;
19151;SDS011;9708;53.114;9.388;2023-08-12T00:52:14;2.90;;;2.58;;
19151;SDS011;9708;53.114;9.388;2023-08-12T00:54:43;4.75;;;2.83;;
19151;SDS011;9708;53.114;9.388;2023-08-12T00:57:10;3.75;;;3.05;;
19151;SDS011;9708;53.114;9.388;2023-08-12T00:59:37;3.35;;;2.50;;
19151;SDS011;9708;53.114;9.388;2023-08-12T01:02:07;3.60;;;2.95;;
19151;SDS011;9708;53.114;9.388;2023-08-12T01:04:34;6.50;;;2.70;;
19151;SDS011;9708;53.114;9.388;2023-08-12T01:07:02;5.82;;;3.53;;
19151;SDS011;9708;53.114;9.388;2023-08-12T01:09:29;4.75;;;3.00;;
19151;SDS011;9708;53.114;9.388;2023-08-12T01:11:57;5.15;;;3.85;;
19151;SDS011;9708;53.114;9.388;2023-08-12T01:14:34;4.78;;;3.53;;
19151;SDS011;9708;53.114;9.388;2023-08-12T01:17:06;3.97;;;2.95;;
19151;SDS011;9708;53.114;9.388;2023-08-12T01:19:36;8.45;;;3.40;;
19151;SDS011;9708;53.114;9.388;2023-08-12T01:22:06;4.45;;;3.15;;
19151;SDS011;9708;53.114;9.388;2023-08-12T01:24:36;3.47;;;2.75;;
19151;SDS011;9708;53.114;9.388;2023-08-12T01:27:04;4.03;;;2.72;;
19151;SDS011;9708;53.114;9.388;2023-08-12T01:29:31;3.90;;;3.22;;
19151;SDS011;9708;53.114;9.388;2023-08-12T01:32:01;3.92;;;3.13;;
19151;SDS011;9708;53.114;9.388;2023-08-12T01:34:36;4.72;;;3.00;;
19151;SDS011;9708;53.114;9.388;2023-08-12T01:37:07;3.55;;;3.10;;
19151;SDS011;9708;53.114;9.388;2023-08-12T01:39:38;3.30;;;2.35;;
19151;SDS011;9708;53.114;9.388;2023-08-12T01:42:08;2.83;;;2.47;;
19151;SDS011;9708;53.114;9.388;2023-08-12T01:44:35;2.83;;;2.47;;
19151;SDS011;9708;53.114;9.388;2023-08-12T01:47:02;4.10;;;3.00;;
19151;SDS011;9708;53.114;9.388;2023-08-12T01:49:29;2.78;;;2.58;;
19151;SDS011;9708;53.114;9.388;2023-08-12T01:51:56;4.18;;;3.50;;
19151;SDS011;9708;53.114;9.388;2023-08-12T01:54:23;3.45;;;2.60;;
19151;SDS011;9708;53.114;9.388;2023-08-12T01:56:51;4.68;;;2.75;;
19151;SDS011;9708;53.114;9.388;2023-08-12T01:59:18;4.65;;;3.03;;
19151;SDS011;9708;53.114;9.388;2023-08-12T02:01:44;4.20;;;3.10;;
19151;SDS011;9708;53.114;9.388;2023-08-12T02:04:11;3.78;;;2.45;;
19151;SDS011;9708;53.114;9.388;2023-08-12T02:06:38;3.90;;;3.25;;
19151;SDS011;9708;53.114;9.388;2023-08-12T02:09:05;4.47;;;3.58;;
19151;SDS011;9708;53.114;9.388;2023-08-12T02:11:31;2.80;;;2.60;;
19151;SDS011;9708;53.114;9.388;2023-08-12T02:14:00;2.97;;;2.40;;
19151;SDS011;9708;53.114;9.388;2023-08-12T02:16:27;3.58;;;2.83;;
19151;SDS011;9708;53.114;9.388;2023-08-12T02:18:53;3.65;;;2.72;;
19151;SDS011;9708;53.114;9.388;2023-08-12T02:21:20;4.25;;;2.80;;
19151;SDS011;9708;53.114;9.388;2023-08-12T02:23:47;7.95;;;2.80;;
19151;SDS011;9708;53.114;9.388;2023-08-12T02:26:14;4.15;;;2.97;;
19151;SDS011;9708;53.114;9.388;2023-08-12T02:28:41;3.30;;;3.00;;
19151;SDS011;9708;53.114;9.388;2023-08-12T02:31:09;3.40;;;2.80;;
19151;SDS011;9708;53.114;9.388;2023-08-12T02:33:36;4.82;;;3.20;;
19151;SDS011;9708;53.114;9.388;2023-08-12T02:36:03;3.05;;;2.72;;
19151;SDS011;9708;53.114;9.388;2023-08-12T02:38:30;3.10;;;2.42;;
19151;SDS011;9708;53.114;9.388;2023-08-12T02:40:57;3.28;;;2.63;;
19151;SDS011;9708;53.114;9.388;2023-08-12T02:43:24;3.17;;;2.88;;
19151;SDS011;9708;53.114;9.388;2023-08-12T02:45:51;3.70;;;2.83;;
19151;SDS011;9708;53.114;9.388;2023-08-12T02:48:19;5.32;;;3.30;;
19151;SDS011;9708;53.114;9.388;2023-08-12T02:50:46;3.92;;;3.00;;
19151;SDS011;9708;53.114;9.388;2023-08-12T02:53:12;4.68;;;3.50;;
19151;SDS011;9708;53.114;9.388;2023-08-12T02:55:39;3.75;;;2.97;;
19151;SDS011;9708;53.114;9.388;2023-08-12T02:58:06;3.63;;;3.05;;
19151;SDS011;9708;53.114;9.388;2023-08-12T03:00:34;3.97;;;3.28;;
19151;SDS011;9708;53.114;9.388;2023-08-12T03:03:00;3.38;;;3.08;;
19151;SDS011;9708;53.114;9.388;2023-08-12T03:05:29;6.25;;;3.75;;
19151;SDS011;9708;53.114;9.388;2023-08-12T03:07:57;13.05;;;3.75;;
19151;SDS011;9708;53.114;9.388;2023-08-12T03:10:26;5.93;;;3.78;;
19151;SDS011;9708;53.114;9.388;2023-08-12T03:12:53;6.70;;;3.83;;
19151;SDS011;9708;53.114;9.388;2023-08-12T03:15:20;6.05;;;3.90;;
19151;SDS011;9708;53.114;9.388;2023-08-12T03:17:47;5.45;;;3.67;;
19151;SDS011;9708;53.114;9.388;2023-08-12T03:20:13;7.30;;;3.88;;
19151;SDS011;9708;53.114;9.388;2023-08-12T03:22:42;4.70;;;3.60;;
19151;SDS011;9708;53.114;9.388;2023-08-12T03:25:08;5.47;;;3.92;;
19151;SDS011;9708;53.114;9.388;2023-08-12T03:27:35;5.10;;;3.70;;
19151;SDS011;9708;53.114;9.388;2023-08-12T03:30:02;4.78;;;3.22;;
19151;SDS011;9708;53.114;9.388;2023-08-12T03:32:29;5.93;;;3.47;;
19151;SDS011;9708;53.114;9.388;2023-08-12T03:34:56;4.60;;;3.58;;
19151;SDS011;9708;53.114;9.388;2023-08-12T03:37:24;3.75;;;3.22;;
19151;SDS011;9708;53.114;9.388;2023-08-12T03:39:53;5.05;;;3.80;;
19151;SDS011;9708;53.114;9.388;2023-08-12T03:42:20;4.63;;;3.78;;
19151;SDS011;9708;53.114;9.388;2023-08-12T03:44:46;7.70;;;3.88;;
19151;SDS011;9708;53.114;9.388;2023-08-12T03:47:13;5.53;;;3.75;;
19151;SDS011;9708;53.114;9.388;2023-08-12T03:49:40;3.05;;;2.75;;
19151;SDS011;9708;53.114;9.388;2023-08-12T03:52:07;5.72;;;3.65;;
19151;SDS011;9708;53.114;9.388;2023-08-12T03:54:34;6.60;;;3.90;;
19151;SDS011;9708;53.114;9.388;2023-08-12T03:57:02;5.15;;;4.07;;
19151;SDS011;9708;53.114;9.388;2023-08-12T03:59:29;3.58;;;3.28;;
19151;SDS011;9708;53.114;9.388;2023-08-12T04:01:55;5.35;;;3.92;;
19151;SDS011;9708;53.114;9.388;2023-08-12T04:04:22;4.00;;;2.88;;
19151;SDS011;9708;53.114;9.388;2023-08-12T04:06:49;4.65;;;3.72;;
19151;SDS011;9708;53.114;9.388;2023-08-12T04:09:17;5.05;;;3.90;;
19151;SDS011;9708;53.114;9.388;2023-08-12T04:11:44;4.25;;;3.58;;
19151;SDS011;9708;53.114;9.388;2023-08-12T04:14:13;7.82;;;3.30;;
19151;SDS011;9708;53.114;9.388;2023-08-12T04:16:40;7.45;;;3.63;;
19151;SDS011;9708;53.114;9.388;2023-08-12T04:19:07;4.50;;;3.88;;
19151;SDS011;9708;53.114;9.388;2023-08-12T04:21:34;4.97;;;4.03;;
19151;SDS011;9708;53.114;9.388;2023-08-12T04:24:00;4.53;;;3.38;;
19151;SDS011;9708;53.114;9.388;2023-08-12T04:26:27;4.40;;;3.72;;
19151;SDS011;9708;53.114;9.388;2023-08-12T04:28:54;4.55;;;3.88;;
19151;SDS011;9708;53.114;9.388;2023-08-12T04:31:22;8.77;;;3.90;;
19151;SDS011;9708;53.114;9.388;2023-08-12T04:33:49;4.93;;;3.97;;
19151;SDS011;9708;53.114;9.388;2023-08-12T04:36:17;5.70;;;4.63;;
19151;SDS011;9708;53.114;9.388;2023-08-12T04:38:44;5.15;;;4.55;;
19151;SDS011;9708;53.114;9.388;2023-08-12T04:41:11;4.47;;;3.88;;
19151;SDS011;9708;53.114;9.388;2023-08-12T04:43:38;7.85;;;4.28;;
19151;SDS011;9708;53.114;9.388;2023-08-12T04:46:05;5.15;;;4.10;;
19151;SDS011;9708;53.114;9.388;2023-08-12T04:48:33;6.72;;;5.28;;
19151;SDS011;9708;53.114;9.388;2023-08-12T04:51:00;6.22;;;4.95;;
19151;SDS011;9708;53.114;9.388;2023-08-12T04:53:28;7.32;;;5.45;;
19151;SDS011;9708;53.114;9.388;2023-08-12T04:55:55;7.18;;;5.15;;
19151;SDS011;9708;53.114;9.388;2023-08-12T04:58:22;6.63;;;4.97;;
19151;SDS011;9708;53.114;9.388;2023-08-12T05:00:49;6.75;;;5.43;;
19151;SDS011;9708;53.114;9.388;2023-08-12T05:03:16;7.53;;;5.28;;
19151;SDS011;9708;53.114;9.388;2023-08-12T05:05:47;10.77;;;5.15;;
19151;SDS011;9708;53.114;9.388;2023-08-12T05:08:15;8.43;;;5.43;;
19151;SDS011;9708;53.114;9.388;2023-08-12T05:10:42;7.90;;;5.97;;
19151;SDS011;9708;53.114;9.388;2023-08-12T05:13:09;8.55;;;6.18;;
19151;SDS011;9708;53.114;9.388;2023-08-12T05:15:36;8.75;;;6.15;;
19151;SDS011;9708;53.114;9.388;2023-08-12T05:18:03;7.93;;;5.53;;
19151;SDS011;9708;53.114;9.388;2023-08-12T05:20:31;16.05;;;6.38;;
19151;SDS011;9708;53.114;9.388;2023-08-12T05:22:59;13.05;;;6.03;;
19151;SDS011;9708;53.114;9.388;2023-08-12T05:25:26;10.32;;;6.13;;
19151;SDS011;9708;53.114;9.388;2023-08-12T05:27:53;7.05;;;5.68;;
19151;SDS011;9708;53.114;9.388;2023-08-12T05:30:19;9.98;;;6.20;;
19151;SDS011;9708;53.114;9.388;2023-08-12T05:32:46;10.38;;;6.82;;
19151;SDS011;9708;53.114;9.388;2023-08-12T05:35:13;19.00;;;7.00;;
19151;SDS011;9708;53.114;9.388;2023-08-12T05:37:40;10.73;;;6.95;;
19151;SDS011;9708;53.114;9.388;2023-08-12T05:40:09;7.90;;;6.07;;
19151;SDS011;9708;53.114;9.388;2023-08-12T05:42:36;9.20;;;6.35;;
19151;SDS011;9708;53.114;9.388;2023-08-12T05:45:04;10.98;;;7.07;;
19151;SDS011;9708;53.114;9.388;2023-08-12T05:47:31;14.57;;;7.72;;
19151;SDS011;9708;53.114;9.388;2023-08-12T05:49:58;10.65;;;7.07;;
19151;SDS011;9708;53.114;9.388;2023-08-12T05:52:25;10.30;;;7.15;;
19151;SDS011;9708;53.114;9.388;2023-08-12T05:54:52;8.93;;;6.45;;
19151;SDS011;9708;53.114;9.388;2023-08-12T05:57:20;9.18;;;6.60;;
19151;SDS011;9708;53.114;9.388;2023-08-12T05:59:47;6.47;;;5.45;;
19151;SDS011;9708;53.114;9.388;2023-08-12T06:02:14;8.35;;;6.30;;
19151;SDS011;9708;53.114;9.388;2023-08-12T06:04:41;9.77;;;6.07;;
19151;SDS011;9708;53.114;9.388;2023-08-12T06:07:08;11.68;;;7.63;;
19151;SDS011;9708;53.114;9.388;2023-08-12T06:09:34;13.52;;;7.40;;
19151;SDS011;9708;53.114;9.388;2023-08-12T06:12:01;11.10;;;7.13;;
19151;SDS011;9708;53.114;9.388;2023-08-12T06:14:29;9.32;;;6.18;;
19151;SDS011;9708;53.114;9.388;2023-08-12T06:16:56;11.77;;;7.30;;
19151;SDS011;9708;53.114;9.388;2023-08-12T06:19:23;9.75;;;6.60;;
19151;SDS011;9708;53.114;9.388;2023-08-12T06:21:50;7.93;;;5.93;;
19151;SDS011;9708;53.114;9.388;2023-08-12T06:24:16;15.35;;;8.77;;
19151;SDS011;9708;53.114;9.388;2023-08-12T06:26:43;11.02;;;7.97;;
19151;SDS011;9708;53.114;9.388;2023-08-12T06:29:10;11.60;;;7.13;;
19151;SDS011;9708;53.114;9.388;2023-08-12T06:31:39;8.35;;;6.85;;
19151;SDS011;9708;53.114;9.388;2023-08-12T06:34:05;9.98;;;6.57;;
19151;SDS011;9708;53.114;9.388;2023-08-12T06:36:32;9.02;;;6.95;;
19151;SDS011;9708;53.114;9.388;2023-08-12T06:38:59;9.88;;;6.80;;
19151;SDS011;9708;53.114;9.388;2023-08-12T06:41:26;11.95;;;7.30;;
19151;SDS011;9708;53.114;9.388;2023-08-12T06:43:53;8.27;;;6.25;;
19151;SDS011;9708;53.114;9.388;2023-08-12T06:46:19;11.32;;;7.43;;
19151;SDS011;9708;53.114;9.388;2023-08-12T06:48:48;10.50;;;7.13;;
19151;SDS011;9708;53.114;9.388;2023-08-12T06:51:14;10.68;;;7.63;;
19151;SDS011;9708;53.114;9.388;2023-08-12T06:53:41;12.10;;;7.78;;
19151;SDS011;9708;53.114;9.388;2023-08-12T06:56:08;11.85;;;7.57;;
19151;SDS011;9708;53.114;9.388;2023-08-12T06:58:35;9.57;;;7.25;;
19151;SDS011;9708;53.114;9.388;2023-08-12T07:01:02;10.52;;;7.53;;
19151;SDS011;9708;53.114;9.388;2023-08-12T07:03:29;10.75;;;7.13;;
19151;SDS011;9708;53.114;9.388;2023-08-12T07:05:57;11.07;;;7.68;;
19151;SDS011;9708;53.114;9.388;2023-08-12T07:08:24;11.80;;;6.60;;
19151;SDS011;9708;53.114;9.388;2023-08-12T07:10:52;13.02;;;7.93;;
19151;SDS011;9708;53.114;9.388;2023-08-12T07:13:19;18.27;;;10.15;;
19151;SDS011;9708;53.114;9.388;2023-08-12T07:15:45;10.18;;;7.20;;
19151;SDS011;9708;53.114;9.388;2023-08-12T07:18:12;11.77;;;6.65;;
19151;SDS011;9708;53.114;9.388;2023-08-12T07:20:39;10.00;;;7.60;;
19151;SDS011;9708;53.114;9.388;2023-08-12T07:23:07;12.43;;;7.25;;
19151;SDS011;9708;53.114;9.388;2023-08-12T07:25:34;13.93;;;7.72;;
19151;SDS011;9708;53.114;9.388;2023-08-12T07:28:01;11.10;;;8.13;;
19151;SDS011;9708;53.114;9.388;2023-08-12T07:30:28;10.32;;;6.82;;
19151;SDS011;9708;53.114;9.388;2023-08-12T07:32:54;9.73;;;7.07;;
19151;SDS011;9708;53.114;9.388;2023-08-12T07:35:21;13.75;;;8.27;;
19151;SDS011;9708;53.114;9.388;2023-08-12T07:37:48;13.27;;;7.57;;
19151;SDS011;9708;53.114;9.388;2023-08-12T07:40:16;19.33;;;9.48;;
19151;SDS011;9708;53.114;9.388;2023-08-12T07:42:43;13.02;;;8.05;;
19151;SDS011;9708;53.114;9.388;2023-08-12T07:45:10;10.20;;;7.15;;
19151;SDS011;9708;53.114;9.388;2023-08-12T07:47:37;10.65;;;8.43;;
19151;SDS011;9708;53.114;9.388;2023-08-12T07:50:04;11.43;;;7.68;;
19151;SDS011;9708;53.114;9.388;2023-08-12T07:52:32;12.65;;;7.03;;
19151;SDS011;9708;53.114;9.388;2023-08-12T07:54:58;16.42;;;8.63;;
19151;SDS011;9708;53.114;9.388;2023-08-12T07:57:27;16.25;;;8.60;;
19151;SDS011;9708;53.114;9.388;2023-08-12T07:59:54;16.52;;;8.55;;
19151;SDS011;9708;53.114;9.388;2023-08-12T08:02:20;12.95;;;8.07;;
19151;SDS011;9708;53.114;9.388;2023-08-12T08:04:47;12.38;;;7.85;;
19151;SDS011;9708;53.114;9.388;2023-08-12T08:07:14;14.45;;;8.63;;
19151;SDS011;9708;53.114;9.388;2023-08-12T08:09:41;9.95;;;7.00;;
19151;SDS011;9708;53.114;9.388;2023-08-12T08:12:08;13.52;;;7.50;;
19151;SDS011;9708;53.114;9.388;2023-08-12T08:14:37;12.77;;;6.93;;
19151;SDS011;9708;53.114;9.388;2023-08-12T08:17:04;10.43;;;6.75;;
19151;SDS011;9708;53.114;9.388;2023-08-12T08:19:31;11.90;;;7.03;;
19151;SDS011;9708;53.114;9.388;2023-08-12T08:21:58;11.65;;;7.75;;
19151;SDS011;9708;53.114;9.388;2023-08-12T08:24:25;13.18;;;6.63;;
19151;SDS011;9708;53.114;9.388;2023-08-12T08:26:51;9.45;;;6.20;;
19151;SDS011;9708;53.114;9.388;2023-08-12T08:29:18;9.25;;;6.32;;
19151;SDS011;9708;53.114;9.388;2023-08-12T08:31:46;9.43;;;6.32;;
19151;SDS011;9708;53.114;9.388;2023-08-12T08:34:13;8.98;;;6.18;;
19151;SDS011;9708;53.114;9.388;2023-08-12T08:36:40;12.45;;;7.45;;
19151;SDS011;9708;53.114;9.388;2023-08-12T08:39:08;11.02;;;7.03;;
19151;SDS011;9708;53.114;9.388;2023-08-12T08:41:36;16.45;;;6.88;;
19151;SDS011;9708;53.114;9.388;2023-08-12T08:44:06;8.57;;;6.00;;
19151;SDS011;9708;53.114;9.388;2023-08-12T08:46:34;10.20;;;6.47;;
19151;SDS011;9708;53.114;9.388;2023-08-12T08:49:02;12.05;;;7.35;;
19151;SDS011;9708;53.114;9.388;2023-08-12T08:51:31;10.13;;;6.78;;
19151;SDS011;9708;53.114;9.388;2023-08-12T08:53:59;14.85;;;7.13;;
19151;SDS011;9708;53.114;9.388;2023-08-12T08:56:29;12.07;;;6.78;;
19151;SDS011;9708;53.114;9.388;2023-08-12T08:58:57;12.48;;;6.80;;
19151;SDS011;9708;53.114;9.388;2023-08-12T09:01:23;12.68;;;7.00;;
19151;SDS011;9708;53.114;9.388;2023-08-12T09:03:51;9.63;;;6.93;;
19151;SDS011;9708;53.114;9.388;2023-08-12T09:06:21;9.70;;;6.93;;
19151;SDS011;9708;53.114;9.388;2023-08-12T09:08:50;9.60;;;6.63;;
19151;SDS011;9708;53.114;9.388;2023-08-12T09:11:18;10.18;;;7.03;;
19151;SDS011;9708;53.114;9.388;2023-08-12T09:13:45;10.15;;;6.78;;
19151;SDS011;9708;53.114;9.388;2023-08-12T09:16:13;11.70;;;6.72;;
19151;SDS011;9708;53.114;9.388;2023-08-12T09:18:40;9.80;;;6.43;;
19151;SDS011;9708;53.114;9.388;2023-08-12T09:21:09;9.90;;;5.57;;
19151;SDS011;9708;53.114;9.388;2023-08-12T09:23:38;12.70;;;6.97;;
19151;SDS011;9708;53.114;9.388;2023-08-12T09:26:10;8.38;;;5.57;;
19151;SDS011;9708;53.114;9.388;2023-08-12T09:28:39;9.35;;;5.75;;
19151;SDS011;9708;53.114;9.388;2023-08-12T09:31:06;8.05;;;4.95;;
19151;SDS011;9708;53.114;9.388;2023-08-12T09:33:37;6.78;;;4.85;;
19151;SDS011;9708;53.114;9.388;2023-08-12T09:36:05;8.00;;;5.63;;
19151;SDS011;9708;53.114;9.388;2023-08-12T09:38:32;8.55;;;4.55;;
19151;SDS011;9708;53.114;9.388;2023-08-12T09:41:01;5.70;;;4.05;;
19151;SDS011;9708;53.114;9.388;2023-08-12T09:43:28;6.53;;;5.32;;
19151;SDS011;9708;53.114;9.388;2023-08-12T09:45:55;7.72;;;5.03;;
19151;SDS011;9708;53.114;9.388;2023-08-12T09:48:24;7.43;;;5.63;;
19151;SDS011;9708;53.114;9.388;2023-08-12T09:50:51;8.23;;;5.30;;
19151;SDS011;9708;53.114;9.388;2023-08-12T09:53:19;7.32;;;4.95;;
19151;SDS011;9708;53.114;9.388;2023-08-12T09:55:46;9.77;;;4.85;;
19151;SDS011;9708;53.114;9.388;2023-08-12T09:58:16;8.43;;;4.82;;
19151;SDS011;9708;53.114;9.388;2023-08-12T10:00:44;8.13;;;4.28;;
19151;SDS011;9708;53.114;9.388;2023-08-12T10:03:12;9.48;;;5.47;;
19151;SDS011;9708;53.114;9.388;2023-08-12T10:05:42;7.32;;;5.10;;
19151;SDS011;9708;53.114;9.388;2023-08-12T10:08:09;6.97;;;5.03;;
19151;SDS011;9708;53.114;9.388;2023-08-12T10:10:39;7.13;;;5.30;;
19151;SDS011;9708;53.114;9.388;2023-08-12T10:13:06;6.95;;;5.40;;
19151;SDS011;9708;53.114;9.388;2023-08-12T10:15:34;7.00;;;4.72;;
19151;SDS011;9708;53.114;9.388;2023-08-12T10:18:03;8.18;;;5.93;;
19151;SDS011;9708;53.114;9.388;2023-08-12T10:20:30;11.10;;;5.60;;
19151;SDS011;9708;53.114;9.388;2023-08-12T10:22:58;7.93;;;5.60;;
19151;SDS011;9708;53.114;9.388;2023-08-12T10:25:29;9.52;;;5.22;;
19151;SDS011;9708;53.114;9.388;2023-08-12T10:27:59;6.88;;;4.97;;
19151;SDS011;9708;53.114;9.388;2023-08-12T10:30:27;7.25;;;5.20;;
19151;SDS011;9708;53.114;9.388;2023-08-12T10:32:56;9.07;;;5.53;;
19151;SDS011;9708;53.114;9.388;2023-08-12T10:35:36;8.65;;;5.40;;
19151;SDS011;9708;53.114;9.388;2023-08-12T10:38:07;7.82;;;4.97;;
19151;SDS011;9708;53.114;9.388;2023-08-12T10:40:34;9.07;;;5.88;;
19151;SDS011;9708;53.114;9.388;2023-08-12T10:43:01;7.53;;;5.03;;
19151;SDS011;9708;53.114;9.388;2023-08-12T10:45:40;8.90;;;5.10;;
19151;SDS011;9708;53.114;9.388;2023-08-12T10:48:20;9.52;;;5.75;;
19151;SDS011;9708;53.114;9.388;2023-08-12T10:50:48;6.32;;;4.50;;
19151;SDS011;9708;53.114;9.388;2023-08-12T10:53:21;6.55;;;4.93;;
19151;SDS011;9708;53.114;9.388;2023-08-12T10:55:49;8.30;;;5.07;;
19151;SDS011;9708;53.114;9.388;2023-08-12T10:58:27;8.32;;;5.45;;
19151;SDS011;9708;53.114;9.388;2023-08-12T11:00:55;12.60;;;6.20;;
19151;SDS011;9708;53.114;9.388;2023-08-12T11:03:24;6.88;;;5.30;;
19151;SDS011;9708;53.114;9.388;2023-08-12T11:05:52;9.55;;;5.43;;
19151;SDS011;9708;53.114;9.388;2023-08-12T11:08:24;13.88;;;6.57;;
19151;SDS011;9708;53.114;9.388;2023-08-12T11:10:54;9.93;;;7.00;;
19151;SDS011;9708;53.114;9.388;2023-08-12T11:13:22;9.27;;;6.72;;
19151;SDS011;9708;53.114;9.388;2023-08-12T11:15:49;9.40;;;6.47;;
19151;SDS011;9708;53.114;9.388;2023-08-12T11:18:16;11.88;;;7.05;;
19151;SDS011;9708;53.114;9.388;2023-08-12T11:20:46;12.00;;;5.85;;
19151;SDS011;9708;53.114;9.388;2023-08-12T11:23:14;8.00;;;6.32;;
19151;SDS011;9708;53.114;9.388;2023-08-12T11:25:42;11.63;;;6.38;;
19151;SDS011;9708;53.114;9.388;2023-08-12T11:28:10;10.13;;;7.05;;
19151;SDS011;9708;53.114;9.388;2023-08-12T11:30:39;9.10;;;6.00;;
19151;SDS011;9708;53.114;9.388;2023-08-12T11:33:08;9.45;;;6.85;;
19151;SDS011;9708;53.114;9.388;2023-08-12T11:35:35;11.98;;;7.13;;
19151;SDS011;9708;53.114;9.388;2023-08-12T11:38:05;10.98;;;7.10;;
19151;SDS011;9708;53.114;9.388;2023-08-12T11:40:34;10.88;;;7.13;;
19151;SDS011;9708;53.114;9.388;2023-08-12T11:43:01;10.65;;;6.18;;
19151;SDS011;9708;53.114;9.388;2023-08-12T11:45:28;9.85;;;6.97;;
19151;SDS011;9708;53.114;9.388;2023-08-12T11:47:55;12.68;;;8.18;;
19151;SDS011;9708;53.114;9.388;2023-08-12T11:50:23;10.93;;;7.60;;
19151;SDS011;9708;53.114;9.388;2023-08-12T11:52:50;14.07;;;6.80;;
19151;SDS011;9708;53.114;9.388;2023-08-12T11:55:19;13.07;;;7.32;;
19151;SDS011;9708;53.114;9.388;2023-08-12T11:57:46;9.45;;;7.00;;
19151;SDS011;9708;53.114;9.388;2023-08-12T12:00:13;13.35;;;7.38;;
19151;SDS011;9708;53.114;9.388;2023-08-12T12:02:45;11.02;;;8.00;;
19151;SDS011;9708;53.114;9.388;2023-08-12T12:05:13;14.38;;;8.30;;
19151;SDS011;9708;53.114;9.388;2023-08-12T12:07:41;11.73;;;7.90;;
19151;SDS011;9708;53.114;9.388;2023-08-12T12:10:11;12.98;;;7.07;;
19151;SDS011;9708;53.114;9.388;2023-08-12T12:12:41;10.70;;;7.38;;
19151;SDS011;9708;53.114;9.388;2023-08-12T12:15:10;10.57;;;7.03;;
19151;SDS011;9708;53.114;9.388;2023-08-12T12:17:39;11.82;;;7.85;;
19151;SDS011;9708;53.114;9.388;2023-08-12T12:20:06;10.75;;;7.32;;
19151;SDS011;9708;53.114;9.388;2023-08-12T12:22:35;10.60;;;7.07;;
19151;SDS011;9708;53.114;9.388;2023-08-12T12:25:05;10.32;;;7.47;;
19151;SDS011;9708;53.114;9.388;2023-08-12T12:27:33;12.85;;;7.82;;
19151;SDS011;9708;53.114;9.388;2023-08-12T12:30:01;16.15;;;7.78;;
19151;SDS011;9708;53.114;9.388;2023-08-12T12:32:28;12.30;;;8.13;;
19151;SDS011;9708;53.114;9.388;2023-08-12T12:34:55;11.38;;;7.68;;
19151;SDS011;9708;53.114;9.388;2023-08-12T12:37:22;10.48;;;7.32;;
19151;SDS011;9708;53.114;9.388;2023-08-12T12:39:49;10.75;;;7.93;;
19151;SDS011;9708;53.114;9.388;2023-08-12T12:42:16;11.40;;;7.82;;
19151;SDS011;9708;53.114;9.388;2023-08-12T12:44:42;17.13;;;8.27;;
19151;SDS011;9708;53.114;9.388;2023-08-12T12:47:11;11.52;;;7.70;;
19151;SDS011;9708;53.114;9.388;2023-08-12T12:49:38;14.20;;;8.80;;
19151;SDS011;9708;53.114;9.388;2023-08-12T12:52:06;10.73;;;7.32;;
19151;SDS011;9708;53.114;9.388;2023-08-12T12:54:33;9.75;;;7.47;;
19151;SDS011;9708;53.114;9.388;2023-08-12T12:57:00;10.35;;;7.85;;
19151;SDS011;9708;53.114;9.388;2023-08-12T12:59:27;11.02;;;7.55;;
19151;SDS011;9708;53.114;9.388;2023-08-12T13:01:53;11.13;;;7.47;;
19151;SDS011;9708;53.114;9.388;2023-08-12T13:04:22;12.43;;;8.10;;
19151;SDS011;9708;53.114;9.388;2023-08-12T13:06:48;10.10;;;7.88;;
19151;SDS011;9708;53.114;9.388;2023-08-12T13:09:15;11.63;;;7.20;;
19151;SDS011;9708;53.114;9.388;2023-08-12T13:11:42;12.80;;;7.10;;
19151;SDS011;9708;53.114;9.388;2023-08-12T13:14:09;12.60;;;8.15;;
19151;SDS011;9708;53.114;9.388;2023-08-12T13:16:36;12.98;;;8.07;;
19151;SDS011;9708;53.114;9.388;2023-08-12T13:19:02;12.00;;;8.27;;
19151;SDS011;9708;53.114;9.388;2023-08-12T13:21:31;11.77;;;8.20;;
19151;SDS011;9708;53.114;9.388;2023-08-12T13:23:58;12.80;;;8.13;;
19151;SDS011;9708;53.114;9.388;2023-08-12T13:26:26;10.63;;;8.13;;
19151;SDS011;9708;53.114;9.388;2023-08-12T13:28:53;15.07;;;8.50;;
19151;SDS011;9708;53.114;9.388;2023-08-12T13:31:20;11.52;;;8.27;;
19151;SDS011;9708;53.114;9.388;2023-08-12T13:33:46;14.35;;;8.32;;
19151;SDS011;9708;53.114;9.388;2023-08-12T13:36:13;24.52;;;12.77;;
19151;SDS011;9708;53.114;9.388;2023-08-12T13:38:42;10.88;;;7.85;;
19151;SDS011;9708;53.114;9.388;2023-08-12T13:41:08;10.95;;;7.80;;
19151;SDS011;9708;53.114;9.388;2023-08-12T13:43:35;14.13;;;7.97;;
19151;SDS011;9708;53.114;9.388;2023-08-12T13:46:02;12.25;;;7.90;;
19151;SDS011;9708;53.114;9.388;2023-08-12T13:48:29;11.93;;;7.97;;
19151;SDS011;9708;53.114;9.388;2023-08-12T13:50:56;14.95;;;7.50;;
19151;SDS011;9708;53.114;9.388;2023-08-12T13:53:23;14.88;;;8.00;;
19151;SDS011;9708;53.114;9.388;2023-08-12T13:55:51;43.17;;;16.20;;
19151;SDS011;9708;53.114;9.388;2023-08-12T13:58:18;31.35;;;14.23;;
19151;SDS011;9708;53.114;9.388;2023-08-12T14:00:45;22.83;;;10.85;;
19151;SDS011;9708;53.114;9.388;2023-08-12T14:03:12;14.60;;;9.00;;
19151;SDS011;9708;53.114;9.388;2023-08-12T14:05:39;13.57;;;8.10;;
19151;SDS011;9708;53.114;9.388;2023-08-12T14:08:06;8.23;;;7.07;;
19151;SDS011;9708;53.114;9.388;2023-08-12T14:10:33;10.55;;;7.00;;
19151;SDS011;9708;53.114;9.388;2023-08-12T14:13:01;8.95;;;5.50;;
19151;SDS011;9708;53.114;9.388;2023-08-12T14:15:28;6.20;;;5.05;;
19151;SDS011;9708;53.114;9.388;2023-08-12T14:17:55;9.05;;;5.10;;
19151;SDS011;9708;53.114;9.388;2023-08-12T14:20:21;6.85;;;4.50;;
19151;SDS011;9708;53.114;9.388;2023-08-12T14:22:48;4.60;;;3.88;;
19151;SDS011;9708;53.114;9.388;2023-08-12T14:25:15;5.53;;;4.07;;
19151;SDS011;9708;53.114;9.388;2023-08-12T14:27:42;4.93;;;3.40;;
19151;SDS011;9708;53.114;9.388;2023-08-12T14:30:11;5.70;;;3.97;;
19151;SDS011;9708;53.114;9.388;2023-08-12T14:32:39;6.45;;;3.80;;
19151;SDS011;9708;53.114;9.388;2023-08-12T14:35:06;9.00;;;4.15;;
19151;SDS011;9708;53.114;9.388;2023-08-12T14:37:33;4.03;;;3.65;;
19151;SDS011;9708;53.114;9.388;2023-08-12T14:40:00;6.00;;;3.05;;
19151;SDS011;9708;53.114;9.388;2023-08-12T14:42:28;6.57;;;4.40;;
19151;SDS011;9708;53.114;9.388;2023-08-12T14:44:54;4.22;;;3.40;;
19151;SDS011;9708;53.114;9.388;2023-08-12T14:47:22;3.47;;;3.03;;
19151;SDS011;9708;53.114;9.388;2023-08-12T14:49:49;4.40;;;3.38;;
19151;SDS011;9708;53.114;9.388;2023-08-12T14:52:18;4.25;;;3.33;;
19151;SDS011;9708;53.114;9.388;2023-08-12T14:54:45;5.72;;;3.45;;
19151;SDS011;9708;53.114;9.388;2023-08-12T14:57:12;3.38;;;2.47;;